• Join FlightAware (Why Join?)
  • Login
  • US Flag 
06:37AM EDT


 

Airport Tracker/Info


-or-


 

Live Flight TrackerFlight Track Log ✈ DLH587 ✈ 26-Oct-2013 ✈ HECA / CAI - EDDM / MUC

Flight Track Log - Related Links

Times and Time Zones

All times are in EDT time to prevent confusion due to time zone crossing. See the DLH587 flight status page for this flight to view local times or setup timezone preferences in your user account.

Time Position Orientation Groundspeed Altitude Reporting Facility
EDT Latitude Longitude Course Direction KTS MPH feet Rate Location/Type
08:45AM 30.4141 31.1779 326° Northwest  Level Estimated
08:46AM 30.5114 31.1017 326° Northwest  Level Estimated
08:47AM 30.6086 31.0253 326° Northwest  Level Estimated
08:48AM 30.7059 30.9488 326° Northwest  Level Estimated
08:49AM 30.8030 30.8722 326° Northwest  Level Estimated
08:50AM 30.9001 30.7954 326° Northwest  Level Estimated
08:51AM 30.9972 30.7184 326° Northwest  Level Estimated
08:52AM 31.0942 30.6413 326° Northwest  Level Estimated
08:53AM 31.1912 30.5640 326° Northwest  Level Estimated
08:54AM 31.2881 30.4865 326° Northwest  Level Estimated
08:55AM 31.3850 30.4090 326° Northwest  Level Estimated
08:56AM 31.4819 30.3312 326° Northwest  Level Estimated
08:57AM 31.5787 30.2533 326° Northwest  Level Estimated
08:58AM 31.6754 30.1752 326° Northwest  Level Estimated
08:59AM 31.7721 30.0970 325° Northwest  Level Estimated
09:00AM 31.8687 30.0185 325° Northwest  Level Estimated
09:01AM 31.9653 29.9400 325° Northwest  Level Estimated
09:02AM 32.0619 29.8612 325° Northwest  Level Estimated
09:03AM 32.1584 29.7823 325° Northwest  Level Estimated
09:04AM 32.2548 29.7033 325° Northwest  Level Estimated
09:05AM 32.3513 29.6240 325° Northwest  Level Estimated
09:06AM 32.4476 29.5446 325° Northwest  Level Estimated
09:07AM 32.5439 29.4650 325° Northwest  Level Estimated
09:08AM 32.6402 29.3853 325° Northwest  Level Estimated
09:09AM 32.7364 29.3053 325° Northwest  Level Estimated
09:10AM 32.8326 29.2253 325° Northwest  Level Estimated
09:11AM 32.9286 29.1450 325° Northwest  Level Estimated
09:12AM 33.0247 29.0646 325° Northwest  Level Estimated
09:13AM 33.1207 28.9839 325° Northwest  Level Estimated
09:14AM 33.2166 28.9031 325° Northwest  Level Estimated
09:15AM 33.3125 28.8222 325° Northwest  Level Estimated
09:16AM 33.4084 28.7410 325° Northwest  Level Estimated
09:17AM 33.5042 28.6597 325° Northwest  Level Estimated
09:18AM 33.5999 28.5782 325° Northwest  Level Estimated
09:19AM 33.6956 28.4965 325° Northwest  Level Estimated
09:20AM 33.7912 28.4146 325° Northwest  Level Estimated
09:21AM 33.8868 28.3326 325° Northwest  Level Estimated
09:22AM 33.9823 28.2503 324° Northwest  Level Estimated
09:23AM 34.0778 28.1679 324° Northwest  Level Estimated
09:24AM 34.1732 28.0853 324° Northwest  Level Estimated
09:25AM 34.2686 28.0025 324° Northwest  Level Estimated
09:26AM 34.3639 27.9195 324° Northwest  Level Estimated
09:27AM 34.4591 27.8363 324° Northwest  Level Estimated
09:28AM 34.5543 27.7530 324° Northwest  Level Estimated
09:29AM 34.6494 27.6694 324° Northwest  Level Estimated
09:30AM 34.7445 27.5856 324° Northwest  Level Estimated
09:31AM 34.8395 27.5017 324° Northwest  Level Estimated
09:32AM 34.9345 27.4176 324° Northwest  Level Estimated
09:33AM 35.0294 27.3333 324° Northwest  Level Estimated
09:34AM 35.1242 27.2487 324° Northwest  Level Estimated
09:35AM 35.2190 27.1640 324° Northwest  Level Estimated
09:36AM 35.3137 27.0791 324° Northwest  Level Estimated
09:37AM 35.4084 26.9940 324° Northwest  Level Estimated
09:38AM 35.5030 26.9086 324° Northwest  Level Estimated
09:39AM 35.5975 26.8231 324° Northwest  Level Estimated
09:40AM 35.6920 26.7374 324° Northwest  Level Estimated
09:40AM 34.8460 26.1000 324° Northwest 443 510 34,000  Level FlightAware
09:40AM 34.9100 26.0380 322° Northwest 442 509 34,000  Level FlightAware
09:41AM 35.7864 26.6515 324° Northwest  Level Estimated
09:41AM 34.9660 25.9840 322° Northwest 442 509 34,000  Level FlightAware
09:42AM 35.0300 25.9230 322° Northwest 442 509 34,000  Level FlightAware
09:42AM 35.1010 25.8540 322° Northwest 441 507 34,000  Level FlightAware
09:43AM 35.1660 25.7910 322° Northwest 443 510 34,000  Level FlightAware
09:44AM 35.2300 25.7290 322° Northwest 443 510 34,000  Level FlightAware
09:45AM 35.3330 25.6290 322° Northwest 443 510 34,000  Level FlightAware
09:45AM 35.3840 25.5790 321° Northwest 443 510 34,000  Level FlightAware
09:46AM 35.4600 25.5040 321° Northwest 443 510 34,000  Level FlightAware
09:47AM 35.5430 25.4230 322° Northwest 441 507 34,000  Level FlightAware
09:48AM 35.6130 25.3530 321° Northwest 440 506 34,000  Level FlightAware
09:48AM 35.6810 25.2860 321° Northwest 439 505 34,000  Level FlightAware
09:49AM 35.7530 25.2160 322° Northwest 440 506 34,000  Level FlightAware
09:50AM 35.8600 25.1090 321° Northwest 439 505 34,000  Level FlightAware
09:51AM 35.9170 25.0530 321° Northwest 438 504 34,000  Level FlightAware
09:52AM 35.9860 24.9840 321° Northwest 438 504 34,000  Level FlightAware
09:52AM 36.0450 24.9250 321° Northwest 438 504 34,000  Level FlightAware
09:53AM 36.1050 24.8650 321° Northwest 437 503 34,000  Level FlightAware
09:54AM 36.1790 24.7910 321° Northwest 437 503 34,000  Level FlightAware
09:54AM 36.2440 24.7260 321° Northwest 437 503 34,000  Level FlightAware
09:55AM 36.3130 24.6560 321° Northwest 438 504 34,000  Level FlightAware
09:56AM 36.3570 24.6120 321° Northwest 439 505 34,000  Level FlightAware
09:56AM 36.4160 24.5520 321° Northwest 439 505 34,000  Level FlightAware
09:57AM 36.4810 24.4860 321° Northwest 440 506 34,000  Level FlightAware
09:58AM 36.5540 24.4110 320° Northwest 441 507 34,000  Level FlightAware
09:58AM 36.6340 24.3300 321° Northwest 441 507 34,000  Level FlightAware
09:59AM 36.6910 24.2720 321° Northwest 441 507 34,000  Level FlightAware
10:00AM 36.7490 24.2130 321° Northwest 441 507 34,000  Level FlightAware
10:00AM 36.8120 24.1490 321° Northwest 441 507 34,000  Level FlightAware
10:01AM 36.8730 24.0860 320° Northwest 441 507 34,000  Level FlightAware
10:02AM 36.9360 24.0200 320° Northwest 441 507 34,000  Level FlightAware
10:02AM 36.9930 23.9610 320° Northwest 440 506 34,000  Level FlightAware
10:03AM 37.0500 23.9030 321° Northwest 440 506 34,000  Level FlightAware
10:04AM 37.1230 23.8280 321° Northwest 440 506 34,000  Level FlightAware
10:04AM 37.1910 23.7570 320° Northwest 439 505 34,000  Level FlightAware
10:05AM 37.2570 23.6890 321° Northwest 438 504 34,000  Level FlightAware
10:06AM 37.3230 23.6200 320° Northwest 436 502 34,000  Level FlightAware
10:06AM 37.3740 23.5660 320° Northwest 436 502 34,000  Level FlightAware
10:07AM 37.4250 23.5120 320° Northwest 436 502 34,000  Level FlightAware
10:08AM 37.4950 23.4390 320° Northwest 437 503 34,000  Level FlightAware
10:08AM 37.5550 23.3760 320° Northwest 440 506 34,000  Level FlightAware
10:09AM 37.6130 23.3150 320° Northwest 442 509 34,000  Level FlightAware
10:10AM 37.6780 23.2460 320° Northwest 446 513 34,000  Level FlightAware
10:10AM 37.7540 23.1660 320° Northwest 448 516 34,000  Level FlightAware
10:11AM 37.7700 23.1480 318° Northwest 449 517 34,000  Level FlightAware
10:12AM 37.8880 23.0240 320° Northwest 452 520 34,000  Level FlightAware
10:12AM 37.9400 22.9680 320° Northwest 453 521 34,000  Level FlightAware
10:13AM 38.0460 22.8550 320° Northwest 455 524 34,000  Level FlightAware
10:14AM 38.1110 22.7850 320° Northwest 456 525 34,000  Level FlightAware
10:15AM 38.1600 22.7320 320° Northwest 456 525 34,000  Level FlightAware
10:15AM 38.2220 22.6650 320° Northwest 456 525 34,000  Level FlightAware
10:16AM 38.2850 22.5970 320° Northwest 455 524 34,000  Level FlightAware
10:16AM 38.3370 22.5400 319° Northwest 455 524 34,000  Level FlightAware
10:17AM 38.4030 22.4690 320° Northwest 455 524 34,000  Level FlightAware
10:18AM 38.4580 22.4090 320° Northwest 455 524 34,000  Level FlightAware
10:18AM 38.5310 22.3290 319° Northwest 455 524 34,000  Level FlightAware
10:19AM 38.5980 22.2570 320° Northwest 454 522 34,000  Level FlightAware
10:20AM 38.6560 22.1930 319° Northwest 453 521 34,000  Level FlightAware
10:20AM 38.7150 22.1280 319° Northwest 453 521 34,000  Level FlightAware
10:22AM 38.8240 22.0080 319° Northwest 451 519 34,000  Level FlightAware
10:22AM 38.8930 21.9320 319° Northwest 450 518 34,000  Level FlightAware
10:23AM 38.9550 21.8630 319° Northwest 450 518 34,000  Level FlightAware
10:24AM 39.0120 21.8000 319° Northwest 450 518 34,000  Level FlightAware
10:24AM 39.0700 21.7350 319° Northwest 450 518 34,000  Level FlightAware
10:25AM 39.1500 21.6460 319° Northwest 451 519 34,000  Level FlightAware
10:26AM 39.2060 21.5830 319° Northwest 451 519 34,000  Level FlightAware
10:26AM 39.2590 21.5240 319° Northwest 451 519 34,000  Level FlightAware
10:27AM 39.3070 21.4700 319° Northwest 451 519 34,000  Level FlightAware
10:27AM 39.3770 21.3910 319° Northwest 452 520 34,000  Level FlightAware
10:28AM 39.4370 21.3240 319° Northwest 452 520 34,000  Level FlightAware
10:29AM 39.4890 21.2640 318° Northwest 453 521 34,000  Level FlightAware
10:29AM 39.5550 21.1890 319° Northwest 454 522 34,000  Level FlightAware
10:30AM 39.6230 21.1120 319° Northwest 455 524 34,000  Level FlightAware
10:31AM 39.6850 21.0410 319° Northwest 454 522 34,000  Level FlightAware
10:31AM 39.7560 20.9600 319° Northwest 454 522 34,000  Level FlightAware
10:32AM 39.8200 20.8870 319° Northwest 453 521 34,000  Level FlightAware
10:33AM 39.8710 20.8280 318° Northwest 451 519 34,000  Level FlightAware
10:33AM 39.9210 20.7710 319° Northwest 451 519 34,000  Level FlightAware
10:34AM 39.9900 20.6910 318° Northwest 450 518 34,000  Level FlightAware
10:35AM 40.0620 20.6120 320° Northwest 444 511 34,000  Level FlightAware
10:35AM 40.1170 20.5680 329° Northwest 441 507 34,000  Level FlightAware
10:36AM 40.1910 20.5190 333° Northwest 439 505 34,000  Level FlightAware
10:37AM 40.2700 20.4680 334° Northwest 440 506 34,000  Level FlightAware
10:37AM 40.3360 20.4260 334° Northwest 440 506 34,000  Level FlightAware
10:38AM 40.4230 20.3700 334° Northwest 440 506 34,000  Level FlightAware
10:39AM 40.4930 20.3250 334° Northwest 438 504 34,000  Level FlightAware
10:39AM 40.5770 20.2700 334° Northwest 436 502 34,000  Level FlightAware
10:40AM 40.6470 20.2250 334° Northwest 436 502 34,000  Level FlightAware
10:41AM 40.7690 20.1450 334° Northwest 436 502 34,000  Level FlightAware
10:42AM 40.8320 20.1030 333° Northwest 436 502 34,000  Level FlightAware
10:42AM 40.9090 20.0530 334° Northwest 436 502 34,000  Level FlightAware
10:43AM 40.9710 20.0120 333° Northwest 436 502 34,000  Level FlightAware
10:44AM 41.0490 19.9600 333° Northwest 437 503 34,000  Level FlightAware
10:44AM 41.1260 19.9100 334° Northwest 437 503 34,000  Level FlightAware
10:45AM 41.1940 19.8650 334° Northwest 437 503 34,000  Level FlightAware
10:46AM 41.3000 19.7950 334° Northwest 437 503 34,000  Level FlightAware
10:47AM 41.3750 19.7450 333° Northwest 437 503 34,000  Level FlightAware
10:47AM 41.4270 19.7140 336° Northwest 435 501 34,000  Level FlightAware
10:48AM 41.4920 19.6830 340° North 434 499 34,000  Level FlightAware
10:49AM 41.5780 19.6430 341° North 434 499 34,000  Level FlightAware
10:49AM 41.6550 19.6070 341° North 434 499 34,000  Level FlightAware
10:50AM 41.7390 19.5670 340° North 435 501 34,000  Level FlightAware
10:50AM 41.8000 19.5390 341° North 435 501 34,000  Level FlightAware
10:51AM 41.8590 19.5110 341° North 435 501 34,000  Level FlightAware
10:52AM 41.9360 19.4740 340° North 435 501 34,000  Level FlightAware
10:53AM 42.0310 19.4290 341° North 435 501 34,000  Level FlightAware
10:53AM 42.1200 19.3850 340° North 437 503 34,000  Level FlightAware
10:54AM 42.1870 19.3390 333° Northwest 438 504 34,000  Level FlightAware
10:55AM 42.2760 19.2780 333° Northwest 438 504 34,000  Level FlightAware
10:55AM 42.3480 19.2280 333° Northwest 436 502 34,000  Level FlightAware
10:56AM 42.4290 19.1710 333° Northwest 437 503 34,000  Level FlightAware
10:57AM 42.4830 19.1330 333° Northwest 436 502 34,000  Level FlightAware
10:57AM 42.5540 19.0830 333° Northwest 436 502 34,000  Level FlightAware
10:58AM 42.6170 19.0390 333° Northwest 435 501 34,000  Level FlightAware
10:58AM 42.6740 18.9980 332° Northwest 435 501 34,000  Level FlightAware
10:59AM 42.7410 18.9510 333° Northwest 434 499 34,000  Level FlightAware
11:00AM 42.8290 18.8890 333° Northwest 435 501 34,000  Level FlightAware
11:01AM 42.9010 18.8370 332° Northwest 435 501 34,000  Level FlightAware
11:01AM 42.9660 18.7900 332° Northwest 435 501 34,000  Level FlightAware
11:02AM 43.0530 18.7280 332° Northwest 434 499 34,000  Level FlightAware
11:03AM 43.1190 18.6810 333° Northwest 433 498 34,000  Level FlightAware
11:03AM 43.1930 18.6280 332° Northwest 433 498 34,000  Level FlightAware
11:04AM 43.2760 18.5640 331° Northwest 427 491 34,000  Level FlightAware
11:05AM 43.3380 18.5020 324° Northwest 436 502 34,000  Level FlightAware
11:05AM 43.3690 18.4720 325° Northwest 436 502 34,000  Level FlightAware
11:06AM 43.4600 18.3790 323° Northwest 436 502 34,000  Level FlightAware
11:07AM 43.5150 18.3230 324° Northwest 437 503 34,000  Level FlightAware
11:07AM 43.5740 18.2630 324° Northwest 430 495 34,000  Level FlightAware
11:08AM 43.6450 18.1900 323° Northwest 430 495 34,000  Level FlightAware
11:09AM 43.7190 18.1140 323° Northwest 430 495 34,000  Level FlightAware
11:09AM 43.7680 18.0630 323° Northwest 430 495 34,000  Level FlightAware
11:10AM 43.8250 18.0050 324° Northwest 429 494 34,000  Level FlightAware
11:10AM 43.8970 17.9300 323° Northwest 429 494 34,000  Level FlightAware
11:11AM 43.9480 17.8750 322° Northwest 429 494 34,000  Level FlightAware
11:12AM 44.0180 17.8040 324° Northwest 435 501 34,000  Level FlightAware
11:13AM 44.0860 17.7330 323° Northwest 435 501 34,000  Level FlightAware
11:13AM 44.1320 17.6850 323° Northwest 434 499 34,000  Level FlightAware
11:14AM 44.2090 17.6050 323° Northwest 426 490 34,000  Level FlightAware
11:14AM 44.2810 17.5290 323° Northwest 425 489 34,000  Level FlightAware
11:15AM 44.3530 17.4530 323° Northwest 425 489 34,000  Level FlightAware
11:16AM 44.4230 17.3780 323° Northwest 426 490 34,000  Level FlightAware
11:17AM 44.5050 17.2920 323° Northwest 428 493 34,000  Level FlightAware
11:18AM 44.5740 17.2110 320° Northwest 433 498 34,000  Level FlightAware
11:18AM 44.6350 17.1190 313° West 429 494 34,000  Level FlightAware
11:19AM 44.6900 17.0360 313° West 429 494 34,000  Level FlightAware
11:20AM 44.7510 16.9440 313° West 432 497 34,000  Level FlightAware
11:20AM 44.7970 16.8740 313° West 431 496 34,000  Level FlightAware
11:21AM 44.8520 16.7910 313° West 430 495 34,000  Level FlightAware
11:22AM 44.9000 16.7180 313° West 430 495 34,000  Level FlightAware
11:22AM 44.9530 16.6370 313° West 429 494 34,000  Level FlightAware
11:23AM 45.0140 16.5430 313° West 429 494 34,000  Level FlightAware
11:24AM 45.1020 16.4080 313° West 430 495 34,000  Level FlightAware
11:25AM 45.1570 16.3230 313° West 431 496 34,000  Level FlightAware
11:26AM 45.2240 16.2190 312° West 431 496 34,000  Level FlightAware
11:26AM 45.2670 16.1530 313° West 431 496 34,000  Level FlightAware
11:27AM 45.3180 16.0730 312° West 429 494 34,000  Level FlightAware
11:27AM 45.3610 16.0060 312° West 429 494 34,000  Level FlightAware
11:28AM 45.4190 15.9150 312° West 427 491 34,000  Level FlightAware
11:29AM 45.4620 15.8470 312° West 426 490 34,000  Level FlightAware
11:29AM 45.5050 15.7790 312° West 425 489 34,000  Level FlightAware
11:30AM 45.5400 15.7240 312° West 425 489 34,000  Level FlightAware
11:30AM 45.5890 15.6480 313° West 425 489 34,000  Level FlightAware
11:31AM 45.6570 15.5380 312° West 424 488 34,000  Level FlightAware
11:32AM 45.7020 15.4660 312° West 423 487 34,000  Level FlightAware
11:32AM 45.7470 15.3960 313° West 423 487 34,000  Level FlightAware
11:33AM 45.8200 15.3040 319° Northwest 428 493 34,000  Level FlightAware
11:34AM 45.8760 15.2440 323° Northwest 429 494 34,000  Level FlightAware
11:34AM 45.9420 15.1740 324° Northwest 428 493 34,000  Level FlightAware
11:35AM 46.0100 15.1010 323° Northwest 429 494 34,000  Level FlightAware
11:36AM 46.0690 15.0370 323° Northwest 428 493 34,000  Level FlightAware
11:36AM 46.1270 14.9760 324° Northwest 426 490 34,000  Level FlightAware
11:37AM 46.1850 14.9130 323° Northwest 425 489 34,000  Level FlightAware
11:37AM 46.2430 14.8500 323° Northwest 424 488 34,000  Level FlightAware
11:38AM 46.3130 14.7750 324° Northwest 424 488 34,000  Level FlightAware
11:39AM 46.3760 14.7060 323° Northwest 424 488 34,000  Level FlightAware
11:39AM 46.4270 14.6580 327° Northwest 427 491 34,000 -120 Level FlightAware
11:40AM 46.4860 14.6150 333° Northwest 433 498 33,900 -540 Descending FlightAware
11:40AM 46.5490 14.5830 341° North 438 504 33,400 -1,020 Descending FlightAware
11:41AM 46.6250 14.5450 341° North 429 494 32,700 -1,080 Descending FlightAware
11:42AM 46.6770 14.4880 323° Northwest 420 483 32,100 -1,080 Descending FlightAware
11:42AM 46.7380 14.4070 318° Northwest 419 482 31,400 -1,020 Descending FlightAware
11:43AM 46.7890 14.3390 318° Northwest 414 476 30,800 -1,020 Descending FlightAware
11:44AM 46.8470 14.2620 318° Northwest 416 479 30,100 -780 Descending FlightAware
11:45AM 46.9180 14.1670 318° Northwest 408 470 29,600 -840 Descending FlightAware
11:45AM 46.9750 14.0900 317° Northwest 404 465 28,900 -1,020 Descending FlightAware
11:46AM 47.0380 14.0050 317° Northwest 402 463 28,200 -1,020 Descending FlightAware
11:47AM 47.0830 13.9430 317° Northwest 397 457 27,600 -1,080 Descending FlightAware
11:47AM 47.1400 13.8670 318° Northwest 391 450 26,900 -1,080 Descending FlightAware
11:48AM 47.1960 13.7960 319° Northwest 391 450 26,200 -1,020 Descending FlightAware
11:49AM 47.2580 13.7170 319° Northwest 380 437 25,500 -1,020 Descending FlightAware
11:49AM 47.3110 13.6500 319° Northwest 378 435 24,800 -1,020 Descending FlightAware
11:50AM 47.3890 13.5510 319° Northwest 372 428 23,800 -1,020 Descending FlightAware
11:51AM 47.4420 13.4830 319° Northwest 367 422 23,200 -1,020 Descending FlightAware
11:52AM 47.4860 13.4260 319° Northwest 379 436 22,600 -1,080 Descending FlightAware
11:52AM 47.5390 13.3580 319° Northwest 389 448 21,900 -960 Descending FlightAware
11:53AM 47.5940 13.2880 319° Northwest 387 445 21,300 -960 Descending FlightAware
11:54AM 47.6460 13.2210 319° Northwest 377 434 20,600 -1,500 Descending FlightAware
11:54AM 47.7140 13.1330 319° Northwest 367 422 19,100 -1,920 Descending FlightAware
11:55AM 47.7630 13.0690 319° Northwest 364 419 17,800 -2,040 Descending FlightAware
11:56AM 47.8080 13.0110 319° Northwest 361 415 16,600 -1,980 Descending FlightAware
11:56AM 47.8560 12.9480 319° Northwest 350 403 15,300 -1,920 Descending FlightAware
11:57AM 47.9050 12.8850 319° Northwest 330 380 14,100 -1,020 Descending FlightAware
11:58AM 47.9490 12.8270 319° Northwest 324 373 14,000 -180 Descending FlightAware
11:58AM 47.9770 12.7650 304° West 324 373 13,900 -960 Descending FlightAware
11:59AM 48.0260 12.6430 301° West 324 373 12,400 -1,440 Descending FlightAware
12:00PM 48.0600 12.5790 308° West 328 377 11,500 -1,620 Descending FlightAware
12:01PM 48.1020 12.5320 323° Northwest 326 375 10,600 -1,380 Descending FlightAware
12:01PM 48.1400 12.4890 323° Northwest 305 351 10,000 -1,020 Descending FlightAware
12:02PM 48.1700 12.4560 324° Northwest 281 323 9,600 -1,320 Descending FlightAware
12:02PM 48.2100 12.4120 324° Northwest 276 318 8,600 -1,620 Descending FlightAware
12:03PM 48.2470 12.3700 323° Northwest 276 318 7,600 -1,320 Descending FlightAware
12:03PM 48.2840 12.3300 324° Northwest 271 312 7,000 -1,020 Descending FlightAware
12:04PM 48.3200 12.2840 320° Northwest 265 305 6,400 -1,080 Descending FlightAware
12:05PM 48.3490 12.2390 314° West 261 300 5,800 -1,020 Descending FlightAware
12:05PM 48.3670 12.1820 295° West 235 270 5,200 -960 Descending FlightAware
12:06PM 48.3700 12.1490 278° West 225 259 4,900 -360 Descending FlightAware
12:06PM 48.3650 12.0760 264° West 172 198 4,800 -480 Descending FlightAware
12:07PM 48.3620 12.0310 264° West 165 190 4,200 -900 Descending FlightAware
12:08PM 48.3580 11.9810 263° West 172 198 3,600 -900 Descending FlightAware
12:08PM 48.3550 11.9420 263° West 164 189 3,100 -840 Descending FlightAware
12:09PM 48.3520 11.9070 263° West 152 175 2,700 -840 Descending FlightAware
12:10PM 48.3490 11.8590 265° West 132 152 2,000 -780 Descending FlightAware
12:10PM 48.3460 11.8270 262° West 129 148 1,600 -720 Descending FlightAware
12:11PM 48.3440 11.7910 265° West 78 90 -2,100 Descending FlightAware